Time;durP1;ratioP1;P1;durP2;ratioP2;P2;SDS_P1;SDS_P2;PMS_P1;PMS_P2;Temp;Humidity;BMP_temperature;BMP_pressure;BME280_temperature;BME280_humidity;BME280_pressure;Samples;Min_cycle;Max_cycle;Signal;HPM_P1;HPM_P2
2021/01/07 00:02:03;;;;;;;0.80;0.80;;;;;;;-0.15;87.31;96528.28;299395;204;63005;-51
2021/01/07 00:07:04;;;;;;;0.80;0.80;;;;;;;-0.05;86.79;96523.19;299395;217;63015;-51
2021/01/07 00:12:06;;;;;;;0.70;0.70;;;;;;;-0.10;86.52;96525.75;299395;205;63004;-52
2021/01/07 00:17:07;;;;;;;0.80;0.80;;;;;;;-0.17;87.32;96535.72;299395;214;63009;-51
2021/01/07 00:22:08;;;;;;;0.80;0.80;;;;;;;-0.18;87.21;96528.75;299395;213;63005;-52
2021/01/07 00:27:08;;;;;;;0.80;0.80;;;;;;;-0.19;87.28;96532.47;299395;400;63017;-50
2021/01/07 00:32:10;;;;;;;0.70;0.70;;;;;;;-0.24;87.02;96537.69;299395;323;63005;-65
2021/01/07 00:37:11;;;;;;;0.80;0.80;;;;;;;-0.26;87.78;96537.09;299395;734;63009;-64
2021/01/07 00:42:15;;;;;;;0.80;0.80;;;;;;;-0.25;87.63;96538.72;299395;208;63004;-62
2021/01/07 00:47:16;;;;;;;0.80;0.80;;;;;;;-0.24;87.96;96537.69;299417;443;63009;-53
2021/01/07 00:52:18;;;;;;;0.70;0.70;;;;;;;-0.17;87.58;96530.38;299395;639;63005;-51
2021/01/07 00:57:19;;;;;;;0.70;0.70;;;;;;;-0.19;86.83;96537.81;299394;398;64013;-52
2021/01/07 01:02:20;;;;;;;0.80;0.80;;;;;;;-0.20;86.88;96530.84;299395;206;63005;-51
2021/01/07 01:07:22;;;;;;;0.70;0.70;;;;;;;-0.28;87.46;96533.84;299395;608;63009;-51
2021/01/07 01:12:23;;;;;;;0.80;0.80;;;;;;;-0.26;87.72;96539.78;299395;245;63004;-51
2021/01/07 01:17:27;;;;;;;0.70;0.70;;;;;;;-0.16;87.25;96525.84;299395;210;63009;-52
2021/01/07 01:22:34;;;;;;;0.80;0.80;;;;;;;-0.18;87.13;96531.44;299394;212;64005;-52
2021/01/07 01:27:40;;;;;;;0.70;0.70;;;;;;;-0.23;87.52;96536.62;299395;598;63009;-51
2021/01/07 01:32:43;;;;;;;0.70;0.70;;;;;;;-0.20;87.26;96541.50;299395;314;63005;-51
2021/01/07 01:37:44;;;;;;;0.70;0.70;;;;;;;-0.23;87.70;96541.16;299395;206;63009;-61
2021/01/07 01:42:45;;;;;;;0.70;0.70;;;;;;;-0.26;87.93;96542.44;299395;197;63004;-51
2021/01/07 01:47:51;;;;;;;0.80;0.80;;;;;;;-0.29;88.28;96542.09;299395;802;63009;-60
2021/01/07 01:52:51;;;;;;;0.70;0.70;;;;;;;-0.25;87.65;96545.91;299417;431;63005;-52
2021/01/07 01:57:52;;;;;;;0.80;0.80;;;;;;;-0.25;87.29;96541.41;299395;384;63008;-61
2021/01/07 02:02:53;;;;;;;0.70;0.70;;;;;;;-0.28;87.49;96544.53;299395;844;63011;-61
2021/01/07 02:07:56;;;;;;;0.80;0.80;;;;;;;-0.26;87.66;96547.78;299395;686;63009;-51
2021/01/07 02:12:59;;;;;;;0.80;0.80;;;;;;;-0.24;87.53;96545.69;299395;216;63004;-61
2021/01/07 02:18:03;;;;;;;0.80;0.80;;;;;;;-0.24;87.52;96553.69;299395;244;63009;-62
2021/01/07 02:23:04;;;;;;;0.80;0.80;;;;;;;-0.26;87.62;96552.28;299417;537;63005;-62
2021/01/07 02:28:07;;;;;;;0.80;0.80;;;;;;;-0.28;87.76;96541.84;299395;506;63008;-51
2021/01/07 02:33:08;;;;;;;0.80;0.80;;;;;;;-0.30;87.61;96545.78;299395;224;63004;-52
2021/01/07 02:38:09;;;;;;;0.70;0.70;;;;;;;-0.34;87.81;96550.78;299395;218;63011;-51
2021/01/07 02:43:11;;;;;;;0.73;0.73;;;;;;;-0.29;87.14;96548.22;299395;399;63004;-51
2021/01/07 02:48:11;;;;;;;0.70;0.70;;;;;;;-0.30;87.53;96535.13;299395;287;63009;-51
2021/01/07 02:53:13;;;;;;;0.70;0.70;;;;;;;-0.34;87.20;96540.94;299395;413;63005;-61
2021/01/07 02:58:14;;;;;;;0.70;0.70;;;;;;;-0.37;87.53;96541.41;299395;802;63008;-51
2021/01/07 03:03:15;;;;;;;0.70;0.70;;;;;;;-0.35;87.03;96525.19;299395;196;63004;-61
2021/01/07 03:08:16;;;;;;;0.70;0.70;;;;;;;-0.30;86.84;96535.94;299395;452;63009;-61
2021/01/07 03:13:17;;;;;;;0.80;0.80;;;;;;;-0.34;86.85;96534.78;299395;401;63010;-51
2021/01/07 03:18:18;;;;;;;0.80;0.80;;;;;;;-0.41;86.80;96534.13;299395;367;63009;-51
2021/01/07 03:23:19;;;;;;;0.70;0.70;;;;;;;-0.40;86.89;96535.75;299395;198;63005;-61
2021/01/07 03:28:19;;;;;;;0.70;0.70;;;;;;;-0.43;86.56;96531.69;299395;363;63009;-52
2021/01/07 03:33:20;;;;;;;0.80;0.80;;;;;;;-0.41;86.56;96526.13;299395;260;63004;-49
2021/01/07 03:38:21;;;;;;;0.73;0.73;;;;;;;-0.33;86.46;96525.75;299395;222;63009;-61
2021/01/07 03:43:23;;;;;;;0.80;0.80;;;;;;;-0.37;85.79;96521.94;299395;203;63005;-61
2021/01/07 03:48:23;;;;;;;0.70;0.70;;;;;;;-0.41;85.78;96526.13;299395;304;63009;-61
2021/01/07 03:53:24;;;;;;;0.70;0.70;;;;;;;-0.44;85.91;96510.59;299395;597;63011;-60
2021/01/07 03:58:26;;;;;;;0.80;0.80;;;;;;;-0.40;85.55;96515.22;299395;614;63009;-59
2021/01/07 04:03:26;;;;;;;0.80;0.80;;;;;;;-0.38;85.52;96517.66;299395;214;63004;-50
2021/01/07 04:08:27;;;;;;;0.80;0.80;;;;;;;-0.40;85.68;96514.41;299395;458;63027;-59
2021/01/07 04:13:30;;;;;;;0.80;0.80;;;;;;;-0.34;84.78;96508.13;299395;605;63005;-51
2021/01/07 04:18:30;;;;;;;0.80;0.80;;;;;;;-0.43;85.10;96514.88;299395;222;63009;-50
2021/01/07 04:23:32;;;;;;;0.80;0.80;;;;;;;-0.46;85.35;96505.50;299395;481;63012;-58
2021/01/07 04:28:33;;;;;;;0.77;0.77;;;;;;;-0.52;85.42;96505.59;299395;211;63020;-58
2021/01/07 04:33:34;;;;;;;0.70;0.70;;;;;;;-0.53;85.65;96504.78;299395;225;63004;-51
2021/01/07 04:38:35;;;;;;;0.80;0.80;;;;;;;-0.48;85.70;96510.25;299395;199;63020;-57
2021/01/07 04:43:36;;;;;;;0.80;0.80;;;;;;;-0.49;85.28;96510.47;299395;317;63005;-52
2021/01/07 04:48:37;;;;;;;0.80;0.80;;;;;;;-0.41;85.10;96510.13;299395;222;63004;-50
2021/01/07 04:53:38;;;;;;;0.70;0.70;;;;;;;-0.50;85.87;96514.19;299395;362;63005;-58
2021/01/07 04:58:39;;;;;;;0.70;0.70;;;;;;;-0.37;85.24;96505.94;299395;329;63009;-59
2021/01/07 05:03:45;;;;;;;0.80;0.80;;;;;;;-0.46;85.27;96516.16;299395;326;63004;-51
2021/01/07 05:09:01;;;;;;;0.73;0.73;;;;;;;-0.42;85.46;96505.84;299395;202;63009;-59
2021/01/07 05:14:03;;;;;;;;;;;;;;;-0.43;86.03;96512.22;299996;983;6000;-52
2021/01/07 05:19:06;;;;;;;0.80;0.80;;;;;;;-0.48;86.03;96510.25;299400;211;63004;-59
2021/01/07 05:24:09;;;;;;;0.80;0.80;;;;;;;-0.45;85.53;96508.97;299395;202;63009;-59
2021/01/07 05:29:11;;;;;;;0.80;0.80;;;;;;;-0.46;86.09;96510.00;299395;199;63005;-59
2021/01/07 05:34:14;;;;;;;0.80;0.80;;;;;;;-0.44;86.09;96502.59;299395;677;63008;-51
2021/01/07 05:39:15;;;;;;;0.77;0.77;;;;;;;-0.47;86.01;96498.53;299395;658;63004;-52
2021/01/07 05:44:16;;;;;;;0.82;0.82;;;;;;;-0.43;85.95;96509.53;299395;538;63009;-50
2021/01/07 05:49:20;;;;;;;0.80;0.80;;;;;;;-0.42;85.90;96497.84;299395;224;63004;-59
2021/01/07 05:54:22;;;;;;;0.80;0.80;;;;;;;-0.40;85.52;96499.22;299417;620;63009;-60
2021/01/07 05:59:25;;;;;;;0.80;0.80;;;;;;;-0.35;85.31;96501.19;299373;742;63005;-59
2021/01/07 06:04:29;;;;;;;0.80;0.80;;;;;;;-0.44;86.13;96502.59;299395;196;63008;-60
2021/01/07 06:09:30;;;;;;;0.80;0.80;;;;;;;-0.47;86.48;96503.88;299417;560;63004;-51
2021/01/07 06:14:33;;;;;;;0.80;0.80;;;;;;;-0.45;86.41;96506.31;299395;243;63009;-52
2021/01/07 06:19:42;;;;;;;0.80;0.80;;;;;;;-0.40;86.57;96514.41;299395;648;63004;-52
2021/01/07 06:24:45;;;;;;;0.80;0.80;;;;;;;-0.42;86.94;96516.50;299394;290;64013;-52
2021/01/07 06:29:47;;;;;;;0.80;0.80;;;;;;;-0.41;86.90;96518.13;299395;218;63005;-52
2021/01/07 06:34:49;;;;;;;0.70;0.70;;;;;;;-0.43;86.21;96504.22;299395;197;63019;-52
2021/01/07 06:39:51;;;;;;;0.80;0.80;;;;;;;-0.36;86.02;96512.91;299395;304;63004;-59
2021/01/07 06:44:54;;;;;;;0.70;0.70;;;;;;;-0.38;85.78;96523.00;299395;263;63018;-59
2021/01/07 06:49:56;;;;;;;0.93;0.93;;;;;;;-0.42;86.24;96516.50;299395;223;63005;-58
2021/01/07 06:54:58;;;;;;;0.80;0.80;;;;;;;-0.33;85.85;96520.41;299395;218;63009;-59
2021/01/07 07:00:07;;;;;;;0.80;0.80;;;;;;;-0.36;85.69;96526.25;299395;310;63005;-51
2021/01/07 07:05:10;;;;;;;0.80;0.80;;;;;;;-0.36;85.62;96526.25;299395;217;63009;-50
2021/01/07 07:10:45;;;;;;;0.77;0.77;;;;;;;-0.38;85.76;96533.66;299395;475;63004;-52
2021/01/07 07:15:48;;;;;;;0.80;0.80;;;;;;;-0.36;86.08;96523.56;299395;228;63009;-51
2021/01/07 07:20:50;;;;;;;4.93;4.62;;;;;;;-0.36;86.08;96542.22;299395;216;63010;-58
2021/01/07 07:25:53;;;;;;;0.80;0.80;;;;;;;-0.36;85.46;96542.22;299395;209;63008;-50
2021/01/07 07:30:54;;;;;;;0.70;0.70;;;;;;;-0.40;85.98;96538.41;299395;246;63004;-51
2021/01/07 07:35:56;;;;;;;0.70;0.70;;;;;;;-0.44;86.17;96540.72;299395;200;63009;-50
2021/01/07 07:41:02;;;;;;;0.80;0.80;;;;;;;-0.40;86.25;96541.06;299395;334;63004;-58
2021/01/07 07:46:05;;;;;;;0.70;0.70;;;;;;;-0.41;86.30;96539.44;299395;366;63009;-58
2021/01/07 07:51:13;;;;;;;0.70;0.70;;;;;;;-0.44;86.43;96542.56;299395;229;63005;-59
2021/01/07 07:56:23;;;;;;;0.70;0.70;;;;;;;-0.37;86.56;96545.94;299395;633;63008;-61
2021/01/07 08:01:44;;;;;;;0.80;0.80;;;;;;;-0.28;85.34;96555.19;299395;555;63004;-51
2021/01/07 08:06:48;;;;;;;0.70;0.70;;;;;;;-0.29;86.12;96558.91;299395;241;63009;-59
2021/01/07 08:11:53;;;;;;;0.80;0.80;;;;;;;-0.20;85.68;96562.84;299417;198;63005;-51
2021/01/07 08:16:56;;;;;;;0.70;0.70;;;;;;;0.02;84.17;96559.56;299395;384;63009;-58
2021/01/07 08:21:57;;;;;;;0.80;0.80;;;;;;;-0.16;84.99;96571.19;299395;202;63005;-58
2021/01/07 08:27:12;;;;;;;0.70;0.70;;;;;;;-0.07;84.25;96577.81;299395;361;63009;-51
2021/01/07 08:32:32;;;;;;;0.70;0.70;;;;;;;-0.06;84.56;96588.25;299396;577;63004;-57
2021/01/07 08:37:35;;;;;;;0.80;0.80;;;;;;;-0.08;84.98;96582.31;299396;518;63015;-52
2021/01/07 08:42:37;;;;;;;0.70;0.70;;;;;;;0.13;84.04;96580.09;299396;216;63005;-51
2021/01/07 08:47:38;;;;;;;0.80;0.80;;;;;;;0.18;83.04;96591.69;299396;428;63008;-49
2021/01/07 08:53:06;;;;;;;0.70;0.70;;;;;;;0.10;82.56;96594.69;299396;214;63004;-53
2021/01/07 08:58:07;;;;;;;0.80;0.80;;;;;;;0.02;83.23;96592.38;299396;203;63009;-48
2021/01/07 09:03:08;;;;;;;0.80;0.80;;;;;;;0.00;83.62;96584.63;299396;202;63004;-49
2021/01/07 09:08:14;;;;;;;0.80;0.80;;;;;;;0.06;83.79;96582.88;299396;333;63022;-49
2021/01/07 09:13:25;;;;;;;0.80;0.80;;;;;;;0.14;83.48;96579.03;299313;83;87953;-47
2021/01/07 09:18:26;;;;;;;0.70;0.70;;;;;;;0.14;83.29;96579.84;299397;231;63008;-46
2021/01/07 09:23:27;;;;;;;0.70;0.70;;;;;;;0.22;83.49;96586.69;299397;205;63004;-47
2021/01/07 09:28:34;;;;;;;0.70;0.70;;;;;;;0.18;83.37;96586.34;299396;241;63009;-49
2021/01/07 09:33:47;;;;;;;0.70;0.70;;;;;;;0.25;83.32;96586.22;299396;203;63005;-47
2021/01/07 09:38:48;;;;;;;0.70;0.70;;;;;;;0.28;83.17;96591.91;299396;204;63009;-47
2021/01/07 09:43:49;;;;;;;0.70;0.70;;;;;;;0.28;83.45;96596.44;299396;211;63005;-48
2021/01/07 09:48:49;;;;;;;0.70;0.70;;;;;;;0.36;83.41;96581.88;299396;210;63009;-48
2021/01/07 09:53:51;;;;;;;0.70;0.70;;;;;;;0.45;83.07;96591.16;299396;222;63004;-50
2021/01/07 09:58:52;;;;;;;0.70;0.70;;;;;;;0.40;83.27;96580.38;299396;228;63009;-49
2021/01/07 10:03:54;;;;;;;0.70;0.70;;;;;;;0.53;81.84;96588.94;299396;212;63005;-50
2021/01/07 10:08:55;;;;;;;0.70;0.70;;;;;;;0.43;82.05;96585.25;299396;203;63009;-49
2021/01/07 10:13:59;;;;;;;0.70;0.70;;;;;;;0.45;82.31;96581.28;299397;209;63005;-49
2021/01/07 10:19:02;;;;;;;0.80;0.80;;;;;;;0.50;81.99;96577.91;299417;229;63009;-50
2021/01/07 10:24:05;;;;;;;0.70;0.70;;;;;;;0.54;82.07;96579.06;299395;231;63009;-47
2021/01/07 10:29:07;;;;;;;0.80;0.80;;;;;;;0.54;82.12;96579.06;299377;246;125009;-47
2021/01/07 10:34:09;;;;;;;0.70;0.70;;;;;;;0.60;82.06;96578.13;299395;220;63005;-50
2021/01/07 10:39:14;;;;;;;0.70;0.70;;;;;;;0.64;81.59;96573.94;299395;348;63009;-49
2021/01/07 10:44:19;;;;;;;0.70;0.70;;;;;;;0.75;80.15;96572.25;299395;229;63004;-49
2021/01/07 10:49:23;;;;;;;0.70;0.70;;;;;;;0.71;80.99;96560.41;299417;207;63009;-49
2021/01/07 10:55:00;;;;;;;0.80;0.80;;;;;;;0.80;80.36;96546.47;299417;391;63004;-47
2021/01/07 11:00:40;;;;;;;0.70;0.70;;;;;;;0.78;80.08;96553.91;299373;344;63004;-49
2021/01/07 11:06:15;;;;;;;;;;;;;;;;;;;;;
2021/01/07 11:11:26;;;;;;;0.70;0.70;;;;;;;0.99;77.95;96531.03;299395;344;63009;-49
2021/01/07 11:16:45;;;;;;;0.70;0.70;;;;;;;1.03;78.11;96528.72;299395;204;63004;-48
2021/01/07 11:21:55;;;;;;;0.70;0.70;;;;;;;0.98;78.80;96516.88;299395;236;63009;-49
2021/01/07 11:26:58;;;;;;;0.70;0.70;;;;;;;1.09;76.90;96517.84;299395;203;63005;-49
2021/01/07 11:32:00;;;;;;;0.80;0.80;;;;;;;1.25;75.49;96505.56;299395;340;63008;-49
2021/01/07 11:37:59;;;;;;;0.80;0.80;;;;;;;1.02;77.24;96505.72;299395;212;63004;-48
2021/01/07 11:43:48;;;;;;;0.80;0.80;;;;;;;1.06;75.58;96496.13;299395;210;63009;-49
2021/01/07 11:48:57;;;;;;;0.80;0.80;;;;;;;1.05;76.61;96479.28;299395;247;63005;-50
2021/01/07 11:54:34;;;;;;;;;;;;;;;;;;;;;
2021/01/07 12:00:11;;;;;;;;;;;;;;;;;;;;;
2021/01/07 12:05:17;;;;;;;0.80;0.80;;;;;;;1.13;76.29;96478.91;299417;380;63009;-48
2021/01/07 12:10:27;;;;;;;0.77;0.77;;;;;;;1.03;76.51;96476.09;299395;222;63005;-48
2021/01/07 12:15:32;;;;;;;0.80;0.80;;;;;;;1.04;76.25;96479.56;299395;218;63009;-48
2021/01/07 12:20:36;;;;;;;0.80;0.80;;;;;;;0.94;77.22;96477.53;299417;202;63005;-49
2021/01/07 12:25:42;;;;;;;0.80;0.80;;;;;;;0.92;77.45;96464.41;299416;223;64014;-47
2021/01/07 12:30:46;;;;;;;0.80;0.80;;;;;;;1.08;76.33;96460.09;299395;295;63004;-49
2021/01/07 12:36:25;;;;;;;0.70;0.70;;;;;;;1.10;76.69;96460.69;299417;231;63009;-48
2021/01/07 12:41:31;;;;;;;0.77;0.77;;;;;;;0.99;77.13;96453.56;299373;213;63005;-48
2021/01/07 12:46:37;;;;;;;0.80;0.80;;;;;;;0.93;78.54;96454.53;299395;226;63008;-48
2021/01/07 12:51:40;;;;;;;0.80;0.80;;;;;;;0.88;78.81;96465.13;299395;352;63004;-50
2021/01/07 12:57:19;;;;;;;0.80;0.80;;;;;;;0.86;79.32;96448.53;299395;214;63009;-48
2021/01/07 13:02:32;;;;;;;0.80;0.80;;;;;;;0.78;79.00;96462.28;299395;197;63005;-47
2021/01/07 13:07:36;;;;;;;0.80;0.80;;;;;;;0.89;79.36;96453.41;299395;203;63009;-48
2021/01/07 13:12:40;;;;;;;0.80;0.80;;;;;;;0.79;79.78;96453.22;299417;203;63005;-46
2021/01/07 13:17:42;;;;;;;0.80;0.80;;;;;;;0.78;79.83;96459.63;299417;197;63009;-46
2021/01/07 13:22:47;;;;;;;0.80;0.80;;;;;;;0.97;78.09;96461.03;299395;214;63004;-46
2021/01/07 13:27:48;;;;;;;0.80;0.80;;;;;;;0.85;78.51;96462.94;299395;260;63021;-48
2021/01/07 13:32:51;;;;;;;0.80;0.80;;;;;;;0.88;78.77;96473.97;299395;221;63005;-50
2021/01/07 13:37:54;;;;;;;0.80;0.80;;;;;;;0.72;79.30;96469.41;299395;272;63008;-49
2021/01/07 13:43:05;;;;;;;0.80;0.80;;;;;;;0.80;79.26;96465.53;299395;202;63004;-48
2021/01/07 13:48:12;;;;;;;0.80;0.80;;;;;;;0.71;80.57;96458.94;299395;227;63009;-50
2021/01/07 13:53:18;;;;;;;0.80;0.80;;;;;;;0.70;79.78;96465.34;299395;330;63004;-50
2021/01/07 13:58:20;;;;;;;0.80;0.80;;;;;;;0.78;79.70;96468.44;299395;360;63009;-49
2021/01/07 14:03:22;;;;;;;0.80;0.80;;;;;;;0.78;79.09;96460.41;299395;223;63005;-49
2021/01/07 14:08:29;;;;;;;0.80;0.80;;;;;;;0.64;81.07;96462.59;299395;277;63008;-48
2021/01/07 14:13:34;;;;;;;0.80;0.80;;;;;;;0.64;81.33;96472.47;299395;213;63004;-49
2021/01/07 14:18:36;;;;;;;0.80;0.80;;;;;;;0.58;81.51;96463.56;299417;221;63009;-49
2021/01/07 14:23:38;;;;;;;0.80;0.80;;;;;;;0.68;81.20;96467.47;299395;288;63004;-48
2021/01/07 14:28:43;;;;;;;0.80;0.80;;;;;;;0.55;82.02;96471.25;299395;232;63009;-48
2021/01/07 14:33:48;;;;;;;0.80;0.80;;;;;;;0.51;82.25;96473.56;299395;198;63005;-48
2021/01/07 14:38:49;;;;;;;;;;;;;;;0.47;83.17;96475.09;299996;983;6004;-49
2021/01/07 14:43:51;;;;;;;0.70;0.70;;;;;;;0.42;82.98;96472.31;299400;287;63009;-49
2021/01/07 14:48:58;;;;;;;0.80;0.80;;;;;;;0.41;83.54;96473.38;299395;280;63005;-49
2021/01/07 14:54:04;;;;;;;0.80;0.80;;;;;;;0.42;83.56;96464.31;299395;245;63009;-50
2021/01/07 14:59:38;;;;;;;0.80;0.80;;;;;;;0.38;83.92;96467.69;299395;236;63004;-48
2021/01/07 15:04:42;;;;;;;0.70;0.70;;;;;;;0.45;83.32;96469.19;299395;216;63009;-49
2021/01/07 15:09:46;;;;;;;0.70;0.70;;;;;;;0.42;83.65;96472.31;299417;317;63005;-49
2021/01/07 15:14:56;;;;;;;0.80;0.80;;;;;;;0.46;82.94;96470.81;299395;202;63009;-49
2021/01/07 15:20:19;;;;;;;0.75;0.75;;;;;;;0.30;83.52;96466.25;299395;247;63005;-49
2021/01/07 15:25:38;;;;;;;1.65;1.65;;;;;;;0.17;84.33;96462.00;299395;210;63009;-48
2021/01/07 15:31:10;;;;;;;0.70;0.70;;;;;;;0.18;84.29;96468.12;299390;230;63004;-49
2021/01/07 15:36:58;;;;;;;0.80;0.80;;;;;;;0.27;83.73;96472.06;299395;207;63009;-49
2021/01/07 15:42:37;;;;;;;0.75;0.75;;;;;;;0.20;84.24;96474.06;299395;220;63005;-50
2021/01/07 15:48:14;;;;;;;0.80;0.80;;;;;;;0.05;84.61;96473.75;299395;371;63005;-50
2021/01/07 15:54:07;;;;;;;0.70;0.70;;;;;;;0.09;84.56;96475.69;299390;196;64004;-49
2021/01/07 15:59:47;;;;;;;0.70;0.70;;;;;;;0.14;83.18;96469.66;299395;280;63009;-49
2021/01/07 16:05:08;;;;;;;0.80;0.80;;;;;;;0.04;83.57;96469.44;299395;260;63004;-49
2021/01/07 16:10:10;;;;;;;0.75;0.75;;;;;;;-0.03;83.95;96467.75;299395;205;63009;-49
2021/01/07 16:15:13;;;;;;;0.80;0.80;;;;;;;0.03;83.00;96481.16;299395;321;63004;-49
2021/01/07 16:20:17;;;;;;;0.80;0.80;;;;;;;-0.07;83.21;96489.78;299431;83;63009;-50
2021/01/07 16:25:46;;;;;;;0.80;0.80;;;;;;;-0.11;83.81;96491.31;299417;197;63009;-48
2021/01/07 16:30:49;;;;;;;0.80;0.80;;;;;;;-0.19;84.36;96489.81;299327;340;63009;-49
2021/01/07 16:35:52;;;;;;;0.70;0.70;;;;;;;-0.14;84.18;96491.78;299395;220;63004;-49
2021/01/07 16:40:57;;;;;;;0.80;0.80;;;;;;;-0.17;83.60;96490.38;299390;91;63009;-47
2021/01/07 16:45:59;;;;;;;0.80;0.80;;;;;;;-0.08;82.36;96496.97;299395;197;63005;-49
2021/01/07 16:51:03;;;;;;;0.80;0.80;;;;;;;-0.21;83.95;96491.09;299395;231;63009;-46
2021/01/07 16:56:06;;;;;;;0.70;0.70;;;;;;;-0.16;82.61;96486.66;299395;211;63005;-48
2021/01/07 17:01:09;;;;;;;0.80;0.80;;;;;;;-0.20;83.36;96493.50;299395;197;63009;-49
2021/01/07 17:06:10;;;;;;;0.80;0.80;;;;;;;-0.22;83.99;96492.94;299395;226;63004;-48
2021/01/07 17:11:11;;;;;;;0.82;0.82;;;;;;;-0.20;84.49;96493.50;299395;399;63009;-49
2021/01/07 17:16:11;;;;;;;0.80;0.80;;;;;;;-0.24;85.17;96495.03;299395;227;63005;-48
2021/01/07 17:21:20;;;;;;;0.77;0.77;;;;;;;-0.24;84.74;96492.34;299395;233;63008;-49
2021/01/07 17:26:25;;;;;;;0.80;0.80;;;;;;;-0.21;83.72;96491.09;299389;216;63004;-47
2021/01/07 17:31:49;;;;;;;0.80;0.80;;;;;;;-0.22;83.98;96500.94;299395;197;63009;-48
2021/01/07 17:36:50;;;;;;;0.70;0.70;;;;;;;-0.09;83.76;96490.03;299395;229;63004;-48
2021/01/07 17:41:51;;;;;;;0.80;0.80;;;;;;;-0.06;83.25;96484.22;299395;216;63009;-47
2021/01/07 17:47:03;;;;;;;0.70;0.70;;;;;;;-0.11;83.40;96481.44;299395;214;63005;-49
2021/01/07 17:52:09;;;;;;;0.70;0.70;;;;;;;-0.14;83.39;96483.78;299395;204;63009;-47
2021/01/07 17:57:11;;;;;;;0.70;0.70;;;;;;;-0.19;83.66;96479.13;299395;265;63004;-50
2021/01/07 18:02:14;;;;;;;0.75;0.75;;;;;;;-0.19;84.11;96481.00;299395;211;63009;-47
2021/01/07 18:07:15;;;;;;;0.70;0.70;;;;;;;-0.18;83.54;96491.44;299395;221;63005;-47
2021/01/07 18:12:19;;;;;;;0.77;0.77;;;;;;;-0.24;84.88;96503.03;299395;210;63009;-48
2021/01/07 18:17:20;;;;;;;0.70;0.70;;;;;;;-0.27;85.51;96498.16;299417;391;63005;-48
2021/01/07 18:22:21;;;;;;;0.70;0.70;;;;;;;-0.31;85.64;96499.66;299394;200;64014;-49
2021/01/07 18:27:22;;;;;;;0.70;0.70;;;;;;;-0.26;85.44;96498.97;299395;304;63011;-49
2021/01/07 18:32:27;;;;;;;0.70;0.70;;;;;;;-0.28;85.83;96507.19;299395;402;63009;-49
2021/01/07 18:37:28;;;;;;;0.70;0.70;;;;;;;-0.28;85.97;96511.72;299417;251;63005;-48
2021/01/07 18:42:29;;;;;;;0.70;0.70;;;;;;;-0.23;85.42;96504.66;299395;243;63009;-48
2021/01/07 18:47:30;;;;;;;0.70;0.70;;;;;;;-0.20;84.88;96509.50;299395;218;63005;-49
2021/01/07 18:52:31;;;;;;;0.70;0.70;;;;;;;-0.19;84.60;96510.31;299395;215;63009;-49
2021/01/07 18:57:33;;;;;;;0.70;0.70;;;;;;;-0.21;84.62;96507.88;299395;430;63004;-49
2021/01/07 19:02:34;;;;;;;0.70;0.70;;;;;;;-0.19;84.37;96521.81;299395;202;63009;-48
2021/01/07 19:07:38;;;;;;;0.80;0.80;;;;;;;-0.18;85.03;96520.75;299395;206;63005;-48
2021/01/07 19:12:45;;;;;;;0.70;0.70;;;;;;;-0.26;84.79;96514.97;299395;207;63009;-48
2021/01/07 19:17:50;;;;;;;0.75;0.75;;;;;;;-0.26;85.18;96521.09;299395;226;63005;-49
2021/01/07 19:22:51;;;;;;;0.80;0.80;;;;;;;-0.26;84.85;96514.97;299417;322;63009;-48
2021/01/07 19:27:53;;;;;;;0.70;0.70;;;;;;;-0.13;83.54;96510.19;299395;232;63004;-47
2021/01/07 19:32:55;;;;;;;0.70;0.70;;;;;;;-0.34;84.69;96514.25;299395;215;63009;-50
2021/01/07 19:37:59;;;;;;;0.80;0.80;;;;;;;-0.36;85.19;96512.91;299395;244;63005;-51
2021/01/07 19:43:04;;;;;;;0.70;0.70;;;;;;;-0.36;85.15;96520.91;299417;347;63008;-49
2021/01/07 19:48:09;;;;;;;0.70;0.70;;;;;;;-0.29;85.29;96510.09;299417;212;63004;-50
2021/01/07 19:53:10;;;;;;;0.80;0.80;;;;;;;-0.27;84.67;96514.16;299395;227;63009;-48
2021/01/07 19:58:15;;;;;;;0.68;0.68;;;;;;;-0.34;84.78;96502.78;299395;324;63004;-47
2021/01/07 20:03:18;;;;;;;0.70;0.70;;;;;;;-0.31;84.58;96506.84;299395;273;63009;-50
2021/01/07 20:08:19;;;;;;;0.70;0.70;;;;;;;-0.33;84.56;96509.75;299395;207;63005;-52
2021/01/07 20:13:21;;;;;;;0.82;0.82;;;;;;;-0.38;84.48;96512.31;299395;213;63008;-49
2021/01/07 20:18:23;;;;;;;0.80;0.80;;;;;;;-0.36;84.10;96520.91;299395;225;63004;-53
2021/01/07 20:23:26;;;;;;;0.80;0.80;;;;;;;-0.35;83.88;96523.31;299395;210;63009;-49
2021/01/07 20:28:27;;;;;;;0.80;0.80;;;;;;;-0.29;84.00;96515.44;299395;270;63004;-48
2021/01/07 20:33:28;;;;;;;0.77;0.77;;;;;;;-0.39;83.75;96526.69;299395;226;63009;-47
2021/01/07 20:38:32;;;;;;;0.80;0.80;;;;;;;-0.46;83.84;96526.00;299395;272;63009;-52
2021/01/07 20:43:37;;;;;;;;;;;;;;;-0.52;83.74;96522.41;299996;983;6004;-48
2021/01/07 20:48:38;;;;;;;0.70;0.70;;;;;;;-0.47;84.02;96519.03;299400;222;63009;-48
2021/01/07 20:53:39;;;;;;;0.80;0.80;;;;;;;-0.46;83.43;96526.00;299395;200;63005;-48
2021/01/07 20:58:40;;;;;;;0.80;0.80;;;;;;;-0.52;83.59;96522.41;299395;238;63019;-48
2021/01/07 21:03:40;;;;;;;0.80;0.80;;;;;;;-0.46;83.29;96520.66;299395;330;63011;-51
2021/01/07 21:08:42;;;;;;;0.80;0.80;;;;;;;-0.39;82.29;96518.69;299396;380;63009;-48
2021/01/07 21:13:47;;;;;;;0.80;0.80;;;;;;;-0.47;82.71;96525.19;299396;318;63005;-48
2021/01/07 21:18:49;;;;;;;0.80;0.80;;;;;;;-0.51;82.89;96528.53;299396;203;63009;-49
2021/01/07 21:23:49;;;;;;;0.70;0.70;;;;;;;-0.58;83.62;96533.16;299395;210;64005;-48
2021/01/07 21:28:52;;;;;;;0.80;0.80;;;;;;;-0.39;82.12;96526.69;299396;228;63009;-48
2021/01/07 21:33:53;;;;;;;0.70;0.70;;;;;;;-0.47;82.30;96524.38;299396;230;63004;-48
2021/01/07 21:38:55;;;;;;;0.70;0.70;;;;;;;-0.43;82.00;96515.69;299396;208;63009;-48
2021/01/07 21:43:56;;;;;;;0.80;0.80;;;;;;;-0.54;81.88;96519.16;299396;209;63005;-52
2021/01/07 21:49:00;;;;;;;0.80;0.80;;;;;;;-0.52;81.85;96521.59;299397;215;63009;-48
2021/01/07 21:54:02;;;;;;;0.80;0.80;;;;;;;-0.52;81.55;96521.59;299419;206;63005;-48
2021/01/07 21:59:06;;;;;;;0.80;0.80;;;;;;;-0.55;82.00;96516.72;299397;220;63009;-49
2021/01/07 22:04:07;;;;;;;0.80;0.80;;;;;;;-0.50;82.21;96525.66;299418;382;63004;-50
2021/01/07 22:09:09;;;;;;;0.80;0.80;;;;;;;-0.43;81.19;96515.69;299396;208;63009;-48
2021/01/07 22:14:10;;;;;;;0.70;0.70;;;;;;;-0.46;81.26;96515.34;299396;210;63005;-48
2021/01/07 22:19:15;;;;;;;0.70;0.70;;;;;;;-0.52;81.54;96516.25;299396;230;63009;-47
2021/01/07 22:24:15;;;;;;;;;;;;;;;-0.44;81.51;96529.25;299996;982;6000;-48
2021/01/07 22:29:16;;;;;;;0.73;0.73;;;;;;;-0.46;82.25;96526.81;299401;221;63005;-51
2021/01/07 22:34:20;;;;;;;0.70;0.70;;;;;;;-0.46;81.63;96526.81;299396;206;63021;-48
2021/01/07 22:39:21;;;;;;;0.80;0.80;;;;;;;-0.53;81.95;96530.63;299418;245;63004;-47
2021/01/07 22:44:23;;;;;;;0.80;0.80;;;;;;;-0.36;81.15;96520.91;299397;227;63009;-48
2021/01/07 22:49:24;;;;;;;0.88;0.88;;;;;;;-0.49;82.32;96521.94;299397;209;63004;-47
2021/01/07 22:54:25;;;;;;;0.80;0.80;;;;;;;-0.39;80.87;96526.69;299394;293;63009;-46
2021/01/07 22:59:26;;;;;;;0.70;0.70;;;;;;;-0.48;81.36;96518.22;299395;224;63005;-47
2021/01/07 23:04:27;;;;;;;0.85;0.85;;;;;;;-0.30;80.78;96525.28;299395;215;63020;-52
2021/01/07 23:09:31;;;;;;;0.80;0.80;;;;;;;-0.45;81.13;96530.28;299395;231;63004;-47
2021/01/07 23:14:32;;;;;;;0.70;0.70;;;;;;;-0.43;80.92;96517.53;299417;243;63009;-47
2021/01/07 23:19:33;;;;;;;0.70;0.70;;;;;;;-0.36;79.85;96515.56;299373;208;63004;-51
2021/01/07 23:24:34;;;;;;;0.70;0.70;;;;;;;-0.37;80.53;96519.28;299395;214;63009;-46
2021/01/07 23:29:35;;;;;;;0.70;0.70;;;;;;;-0.43;80.64;96526.34;299395;231;63005;-47
2021/01/07 23:34:39;;;;;;;0.80;0.80;;;;;;;-0.32;79.66;96519.38;299395;197;63008;-48
2021/01/07 23:39:41;;;;;;;0.80;0.80;;;;;;;-0.36;80.58;96510.25;299395;330;63004;-47
2021/01/07 23:44:45;;;;;;;0.80;0.80;;;;;;;-0.47;80.40;96508.38;299395;380;63009;-52
2021/01/07 23:49:47;;;;;;;0.80;0.80;;;;;;;-0.60;81.58;96505.94;299417;396;63004;-48
2021/01/07 23:54:48;;;;;;;0.70;0.70;;;;;;;-0.73;82.54;96505.16;299394;222;64013;-48
2021/01/07 23:59:48;;;;;;;0.80;0.80;;;;;;;-0.84;82.87;96503.28;299395;202;63005;-47
